Time;durP1;ratioP1;P1;durP2;ratioP2;P2;SDS_P1;SDS_P2;PMS_P1;PMS_P2;Temp;Humidity;BMP_temperature;BMP_pressure;BME280_temperature;BME280_humidity;BME280_pressure;Samples;Min_cycle;Max_cycle;Signal;HPM_P1;HPM_P2
2023/01/25 00:00:26;;;;;;;26.38;16.42;;;1.50;99.90;;;;;;5031212;28;20084;-64
2023/01/25 00:02:51;;;;;;;29.95;18.33;;;1.60;99.90;;;;;;5032032;28;20076;-64
2023/01/25 00:05:17;;;;;;;29.38;16.63;;;1.60;99.90;;;;;;5033148;28;20064;-64
2023/01/25 00:07:43;;;;;;;28.92;17.55;;;1.50;99.90;;;;;;5030925;28;20051;-64
2023/01/25 00:10:09;;;;;;;26.13;15.63;;;1.50;99.90;;;;;;5031916;28;20087;-64
2023/01/25 00:12:34;;;;;;;27.27;17.38;;;1.50;99.90;;;;;;5032561;28;20045;-64
2023/01/25 00:15:00;;;;;;;28.63;18.48;;;1.50;99.90;;;;;;5030997;28;20033;-64
2023/01/25 00:17:26;;;;;;;27.27;16.52;;;1.40;99.90;;;;;;5015052;28;20033;-64
2023/01/25 00:19:51;;;;;;;26.67;16.55;;;1.40;99.90;;;;;;5015000;28;20048;-64
2023/01/25 00:22:17;;;;;;;29.00;16.98;;;1.40;99.90;;;;;;5033046;28;20033;-65
2023/01/25 00:24:43;;;;;;;27.73;16.98;;;1.40;99.90;;;;;;5031440;28;20045;-64
2023/01/25 00:27:08;;;;;;;28.77;17.25;;;1.40;99.90;;;;;;5030992;28;20041;-65
2023/01/25 00:29:34;;;;;;;29.38;17.60;;;1.30;99.90;;;;;;5031229;28;20563;-64
2023/01/25 00:31:59;;;;;;;28.05;17.10;;;1.30;99.90;;;;;;5031503;28;20041;-64
2023/01/25 00:34:42;;;;;;;31.17;18.23;;;1.20;99.90;;;;;;5030663;28;20077;-64
2023/01/25 00:37:14;;;;;;;27.17;17.73;;;1.20;99.90;;;;;;5032618;28;20045;-64
2023/01/25 00:39:40;;;;;;;31.75;18.60;;;1.20;99.90;;;;;;5032356;28;20045;-64
2023/01/25 00:42:12;;;;;;;31.73;19.25;;;1.20;99.90;;;;;;5014454;28;20033;-64
2023/01/25 00:44:38;;;;;;;31.02;18.40;;;1.20;99.90;;;;;;5014489;28;20052;-64
2023/01/25 00:47:04;;;;;;;29.90;18.60;;;1.20;99.90;;;;;;5032579;28;20042;-65
2023/01/25 00:49:30;;;;;;;29.50;17.90;;;1.20;99.90;;;;;;5030079;28;20037;-64
2023/01/25 00:51:57;;;;;;;32.28;19.20;;;1.20;99.90;;;;;;5014725;28;20030;-64
2023/01/25 00:54:23;;;;;;;30.83;18.67;;;1.20;99.90;;;;;;5031318;28;20037;-64
2023/01/25 00:56:51;;;;;;;31.63;18.90;;;1.20;99.90;;;;;;5030194;28;20041;-64
2023/01/25 00:59:23;;;;;;;28.70;16.60;;;1.20;99.90;;;;;;5031381;28;20081;-64
2023/01/25 01:01:49;;;;;;;29.30;17.10;;;1.20;99.90;;;;;;5030537;28;20095;-64
2023/01/25 01:04:15;;;;;;;30.65;17.92;;;1.20;99.90;;;;;;5031711;28;20041;-64
2023/01/25 01:06:42;;;;;;;33.35;18.77;;;1.20;99.90;;;;;;5030473;28;20044;-64
2023/01/25 01:09:12;;;;;;;29.67;17.58;;;1.20;99.90;;;;;;5030479;28;20049;-64
2023/01/25 01:11:37;;;;;;;31.10;18.10;;;1.20;99.90;;;;;;5014215;28;20486;-64
2023/01/25 01:14:03;;;;;;;29.20;18.20;;;1.20;99.90;;;;;;5031045;28;20033;-64
2023/01/25 01:16:29;;;;;;;27.55;17.25;;;1.20;99.90;;;;;;5013367;28;20033;-64
2023/01/25 01:18:54;;;;;;;29.48;18.50;;;1.20;99.90;;;;;;5032178;28;20494;-64
2023/01/25 01:21:20;;;;;;;31.52;19.52;;;1.20;99.90;;;;;;5032405;28;20081;-64
2023/01/25 01:23:46;;;;;;;31.20;18.88;;;1.30;99.90;;;;;;5029501;28;20041;-64
2023/01/25 01:26:14;;;;;;;28.40;18.63;;;1.20;99.90;;;;;;5032178;28;20053;-64
2023/01/25 01:28:40;;;;;;;31.70;17.80;;;1.20;99.90;;;;;;5031418;28;20483;-65
2023/01/25 01:31:09;;;;;;;27.98;17.30;;;1.20;99.90;;;;;;5031343;28;20037;-64
2023/01/25 01:33:35;;;;;;;28.80;17.75;;;1.10;99.90;;;;;;5031314;28;20091;-64
2023/01/25 01:36:13;;;;;;;26.77;15.95;;;1.10;99.90;;;;;;5030697;28;20089;-65
2023/01/25 01:38:39;;;;;;;32.28;17.80;;;1.00;99.90;;;;;;5029593;28;20042;-64
2023/01/25 01:41:05;;;;;;;27.40;16.05;;;1.00;99.90;;;;;;5031044;28;20045;-64
2023/01/25 01:43:32;;;;;;;26.13;16.17;;;1.00;99.90;;;;;;5030442;28;20371;-64
2023/01/25 01:46:00;;;;;;;26.80;16.08;;;0.90;99.90;;;;;;5013709;28;20513;-64
2023/01/25 01:48:41;;;;;;;28.33;15.50;;;0.90;99.90;;;;;;5030546;28;20037;-64
2023/01/25 01:51:32;;;;;;;31.83;17.30;;;0.80;99.90;;;;;;5030044;28;20088;-64
2023/01/25 01:54:42;;;;;;;26.88;16.73;;;0.80;99.90;;;;;;5030878;28;20045;-64
2023/01/25 01:57:13;;;;;;;30.30;17.20;;;0.90;99.90;;;;;;5029744;28;20077;-64
2023/01/25 01:59:42;;;;;;;29.40;17.17;;;0.80;99.90;;;;;;5029262;28;20045;-64
2023/01/25 02:02:08;;;;;;;30.90;18.23;;;0.80;99.90;;;;;;5030811;28;20120;-64
2023/01/25 02:04:34;;;;;;;31.63;18.73;;;0.80;99.90;;;;;;5030093;28;20541;-64
2023/01/25 02:07:26;;;;;;;26.05;15.93;;;0.70;99.90;;;;;;5030962;28;20042;-64
2023/01/25 02:09:52;;;;;;;27.73;17.10;;;0.70;99.90;;;;;;5032145;28;20038;-64
2023/01/25 02:12:20;;;;;;;28.42;16.45;;;0.70;99.90;;;;;;5029662;28;20512;-64
2023/01/25 02:14:51;;;;;;;30.02;16.70;;;0.70;99.90;;;;;;5029794;28;20050;-64
2023/01/25 02:17:26;;;;;;;29.05;17.27;;;0.70;99.90;;;;;;5030600;28;20386;-64
2023/01/25 02:19:58;;;;;;;30.88;19.02;;;0.80;99.90;;;;;;5030893;28;20045;-64
2023/01/25 02:23:01;;;;;;;35.83;20.10;;;0.70;99.90;;;;;;5030278;28;20051;-64
2023/01/25 02:25:30;;;;;;;28.90;17.42;;;0.70;99.90;;;;;;5008299;28;20108;-64
2023/01/25 02:28:00;;;;;;;34.55;19.33;;;0.70;99.90;;;;;;5032127;28;20037;-64
2023/01/25 02:30:30;;;;;;;35.00;19.35;;;0.70;99.90;;;;;;5033610;28;20045;-64
2023/01/25 02:32:55;;;;;;;31.35;17.98;;;0.60;99.90;;;;;;5017757;28;20398;-64
2023/01/25 02:35:24;;;;;;;29.95;18.35;;;0.70;99.90;;;;;;5016815;28;20045;-64
2023/01/25 02:37:50;;;;;;;35.35;19.75;;;0.70;99.90;;;;;;5034844;28;20398;-64
2023/01/25 02:40:19;;;;;;;30.30;18.05;;;0.70;99.90;;;;;;5033567;28;20037;-64
2023/01/25 02:42:45;;;;;;;33.55;19.88;;;0.60;99.90;;;;;;5034302;28;20042;-64
2023/01/25 02:45:16;;;;;;;35.50;19.13;;;0.50;99.90;;;;;;5033799;28;20088;-64
2023/01/25 02:47:42;;;;;;;31.17;18.52;;;0.50;99.90;;;;;;5032205;28;20111;-64
2023/01/25 02:50:08;;;;;;;33.58;19.33;;;0.50;99.90;;;;;;5033580;28;20077;-64
2023/01/25 02:52:34;;;;;;;34.90;20.02;;;0.50;99.90;;;;;;5016485;28;20053;-64
2023/01/25 02:55:00;;;;;;;33.20;19.00;;;0.50;99.90;;;;;;5016219;28;20041;-64
2023/01/25 02:57:25;;;;;;;31.63;19.83;;;0.50;99.90;;;;;;5033041;28;20098;-64
2023/01/25 02:59:51;;;;;;;33.10;19.02;;;0.60;99.90;;;;;;5033183;28;20402;-64
2023/01/25 03:02:17;;;;;;;32.88;19.35;;;0.60;99.90;;;;;;5032638;28;20094;-64
2023/01/25 03:04:42;;;;;;;37.90;21.92;;;0.60;99.90;;;;;;5032631;28;20041;-64
2023/01/25 03:07:08;;;;;;;34.88;20.10;;;0.60;99.90;;;;;;5034498;28;20505;-64
2023/01/25 03:09:34;;;;;;;32.05;18.80;;;0.70;99.90;;;;;;5032025;28;20045;-64
2023/01/25 03:11:59;;;;;;;36.55;21.85;;;0.70;99.90;;;;;;5034560;28;20402;-64
2023/01/25 03:14:25;;;;;;;36.25;20.75;;;0.70;99.90;;;;;;5032919;28;20045;-64
2023/01/25 03:16:50;;;;;;;39.85;21.98;;;0.70;99.90;;;;;;5032367;28;20041;-64
2023/01/25 03:19:16;;;;;;;40.90;22.50;;;0.70;99.90;;;;;;5033365;28;20076;-64
2023/01/25 03:21:42;;;;;;;42.58;23.45;;;0.60;99.90;;;;;;5033768;28;20095;-64
2023/01/25 03:24:09;;;;;;;39.88;23.58;;;0.60;99.90;;;;;;5032005;28;20387;-64
2023/01/25 03:27:09;;;;;;;44.83;24.42;;;0.60;99.90;;;;;;5032260;28;20549;-64
2023/01/25 03:29:20;;;;;;;43.00;22.70;;;0.50;99.90;;;;;;5033967;28;20049;-64
2023/01/25 03:31:46;;;;;;;47.30;23.08;;;0.50;99.90;;;;;;5015332;28;20041;-64
2023/01/25 03:34:11;;;;;;;45.40;25.23;;;0.40;99.90;;;;;;5032839;28;20044;-64
2023/01/25 03:36:37;;;;;;;42.65;23.65;;;0.50;99.90;;;;;;5032496;28;20053;-64
2023/01/25 03:39:03;;;;;;;47.92;26.30;;;0.50;99.90;;;;;;5031397;28;20077;-64
2023/01/25 03:41:28;;;;;;;53.08;27.10;;;0.50;99.90;;;;;;5032028;28;20045;-64
2023/01/25 03:43:54;;;;;;;45.95;25.25;;;0.50;99.90;;;;;;5033136;28;20037;-64
2023/01/25 03:46:19;;;;;;;41.20;23.92;;;0.40;99.90;;;;;;5016021;28;20090;-64
2023/01/25 03:48:45;;;;;;;51.17;27.42;;;0.50;99.90;;;;;;5031927;28;20122;-64
2023/01/25 03:51:11;;;;;;;49.63;26.73;;;0.50;99.90;;;;;;5032718;28;20435;-64
2023/01/25 03:53:37;;;;;;;47.72;26.23;;;0.40;99.90;;;;;;5031583;28;20037;-64
2023/01/25 03:56:08;;;;;;;47.45;25.50;;;0.50;99.90;;;;;;5033538;28;20030;-64
2023/01/25 03:58:36;;;;;;;50.30;27.05;;;0.50;99.90;;;;;;5032227;28;20034;-64
2023/01/25 04:01:05;;;;;;;52.97;27.63;;;0.50;99.90;;;;;;5032102;28;20045;-64
2023/01/25 04:03:31;;;;;;;53.20;28.23;;;0.50;99.90;;;;;;5031655;28;20038;-65
2023/01/25 04:05:57;;;;;;;45.53;26.17;;;0.50;99.90;;;;;;5031468;28;20509;-64
2023/01/25 04:08:23;;;;;;;47.05;25.25;;;0.50;99.90;;;;;;5032000;28;20490;-64
2023/01/25 04:10:54;;;;;;;50.38;26.95;;;0.60;99.90;;;;;;5014913;28;20127;-64
2023/01/25 04:13:21;;;;;;;53.13;29.35;;;0.60;99.90;;;;;;5031325;28;20037;-64
2023/01/25 04:15:47;;;;;;;50.10;27.92;;;0.60;99.90;;;;;;5031330;28;20393;-64
2023/01/25 04:18:19;;;;;;;49.50;27.73;;;0.60;99.90;;;;;;5031905;28;20037;-64
2023/01/25 04:20:50;;;;;;;50.67;27.80;;;0.60;99.90;;;;;;5030691;28;20580;-64
2023/01/25 04:23:16;;;;;;;50.72;27.83;;;0.50;99.90;;;;;;5033164;28;20112;-64
2023/01/25 04:25:41;;;;;;;48.25;26.42;;;0.50;99.90;;;;;;5014700;28;20037;-64
2023/01/25 04:28:07;;;;;;;48.28;26.10;;;0.50;99.90;;;;;;5031251;28;20131;-64
2023/01/25 04:30:33;;;;;;;46.65;26.23;;;0.50;99.90;;;;;;5031221;28;20038;-64
2023/01/25 04:33:03;;;;;;;51.08;26.83;;;0.50;99.90;;;;;;5030793;28;20448;-64
2023/01/25 04:35:29;;;;;;;51.03;25.90;;;0.50;99.90;;;;;;5030831;28;20062;-65
2023/01/25 04:37:57;;;;;;;48.45;26.92;;;0.50;99.90;;;;;;5032748;28;20041;-64
2023/01/25 04:40:23;;;;;;;46.28;25.30;;;0.40;99.90;;;;;;5030725;28;20490;-64
2023/01/25 04:42:48;;;;;;;50.85;25.85;;;0.40;99.90;;;;;;5031017;28;20051;-64
2023/01/25 04:45:14;;;;;;;48.08;26.23;;;0.30;99.90;;;;;;5031398;28;20422;-64
2023/01/25 04:47:40;;;;;;;51.85;27.63;;;0.30;99.90;;;;;;5031418;28;20388;-64
2023/01/25 04:50:05;;;;;;;49.47;26.25;;;0.30;99.90;;;;;;5032442;28;20402;-64
2023/01/25 04:52:31;;;;;;;45.33;27.02;;;0.30;99.90;;;;;;5030621;28;20041;-64
2023/01/25 04:54:57;;;;;;;53.97;29.00;;;0.40;99.90;;;;;;5014229;28;20037;-64
2023/01/25 04:57:23;;;;;;;49.25;26.27;;;0.30;99.90;;;;;;5032582;28;20033;-64
2023/01/25 04:59:49;;;;;;;51.38;27.45;;;0.40;99.90;;;;;;5014273;28;20128;-64
2023/01/25 05:02:14;;;;;;;50.55;27.42;;;0.40;99.90;;;;;;5030425;28;20620;-64
2023/01/25 05:04:40;;;;;;;54.00;29.40;;;0.40;99.90;;;;;;5031733;28;20045;-64
2023/01/25 05:07:06;;;;;;;55.00;28.83;;;0.30;99.90;;;;;;5031279;28;20080;-64
2023/01/25 05:09:32;;;;;;;51.97;28.30;;;0.30;99.90;;;;;;5029659;28;20091;-64
2023/01/25 05:11:57;;;;;;;50.60;27.85;;;0.30;99.90;;;;;;5031074;28;20087;-64
2023/01/25 05:14:23;;;;;;;52.28;27.33;;;0.40;99.90;;;;;;5014568;28;20109;-64
2023/01/25 05:16:49;;;;;;;50.55;26.95;;;0.30;99.90;;;;;;5031160;28;20041;-64
2023/01/25 05:19:14;;;;;;;52.60;28.75;;;0.40;99.90;;;;;;5014643;28;20041;-64
2023/01/25 05:21:58;;;;;;;48.03;25.98;;;0.40;99.90;;;;;;5014224;28;20087;-64
2023/01/25 05:24:28;;;;;;;47.40;24.75;;;0.30;99.90;;;;;;5030117;28;20049;-64
2023/01/25 05:27:00;;;;;;;43.00;24.13;;;0.40;99.90;;;;;;5031091;28;20045;-64
2023/01/25 05:29:36;;;;;;;47.13;26.23;;;0.40;99.90;;;;;;5031154;28;20058;-64
2023/01/25 05:32:05;;;;;;;48.33;25.40;;;0.40;99.90;;;;;;5031043;28;20121;-64
2023/01/25 05:34:32;;;;;;;53.63;26.95;;;0.30;99.90;;;;;;5030242;28;20034;-64
2023/01/25 05:36:58;;;;;;;48.85;26.52;;;0.20;99.90;;;;;;5013397;28;20133;-64
2023/01/25 05:39:24;;;;;;;49.50;25.85;;;0.30;99.90;;;;;;5030831;28;20136;-64
2023/01/25 05:41:49;;;;;;;49.13;26.65;;;0.30;99.90;;;;;;5030815;28;20042;-64
2023/01/25 05:44:15;;;;;;;45.25;24.83;;;0.20;99.90;;;;;;5030183;28;20045;-64
2023/01/25 05:46:41;;;;;;;46.00;26.10;;;0.20;99.90;;;;;;5031501;28;20069;-64
2023/01/25 05:49:08;;;;;;;46.10;24.50;;;0.20;99.90;;;;;;5030728;28;20490;-64
2023/01/25 05:51:37;;;;;;;45.28;25.90;;;0.20;99.90;;;;;;5029103;28;20085;-64
2023/01/25 05:54:08;;;;;;;45.85;26.45;;;0.20;99.90;;;;;;5030762;28;20036;-64
2023/01/25 05:56:34;;;;;;;44.78;24.27;;;0.20;99.90;;;;;;5031499;28;20044;-64
2023/01/25 05:59:00;;;;;;;43.10;24.17;;;0.10;99.90;;;;;;5030040;28;20490;-64
2023/01/25 06:01:27;;;;;;;44.38;24.70;;;0.10;99.90;;;;;;5014370;28;20448;-64
2023/01/25 06:03:53;;;;;;;44.08;24.95;;;0.10;99.90;;;;;;5034532;28;20076;-64
2023/01/25 06:06:20;;;;;;;46.10;25.75;;;0.00;99.90;;;;;;5035193;28;20037;-64
2023/01/25 06:08:46;;;;;;;44.22;25.80;;;0.10;99.90;;;;;;5035132;28;20052;-64
2023/01/25 06:11:15;;;;;;;50.78;26.48;;;0.00;99.90;;;;;;5035671;28;20076;-64
2023/01/25 06:13:40;;;;;;;46.35;26.42;;;0.00;99.90;;;;;;5033028;28;20124;-64
2023/01/25 06:16:07;;;;;;;44.95;25.13;;;0.10;99.90;;;;;;5034258;28;20128;-64
2023/01/25 06:18:34;;;;;;;44.15;24.77;;;0.10;99.90;;;;;;5032766;28;20037;-64
2023/01/25 06:21:00;;;;;;;46.40;27.17;;;0.00;99.90;;;;;;5034089;28;20212;-64
2023/01/25 06:23:26;;;;;;;49.15;26.02;;;0.00;99.90;;;;;;5034073;28;20042;-64
2023/01/25 06:25:56;;;;;;;46.22;25.70;;;0.00;99.90;;;;;;5016798;28;20072;-64
2023/01/25 06:28:22;;;;;;;44.00;23.50;;;0.00;99.90;;;;;;5035403;28;20099;-64
2023/01/25 06:30:47;;;;;;;47.75;25.63;;;0.00;99.90;;;;;;5016913;28;20038;-64
2023/01/25 06:33:13;;;;;;;44.10;24.52;;;0.00;99.90;;;;;;5033256;28;20033;-64
2023/01/25 06:35:39;;;;;;;45.47;25.30;;;0.00;99.90;;;;;;5032909;28;20049;-64
2023/01/25 06:38:05;;;;;;;47.95;26.35;;;0.00;99.90;;;;;;5033853;28;20045;-64
2023/01/25 06:40:31;;;;;;;50.33;26.85;;;0.10;99.90;;;;;;5033875;28;20065;-64
2023/01/25 06:43:05;;;;;;;49.58;25.02;;;0.10;99.90;;;;;;5035218;28;20080;-64
2023/01/25 06:45:32;;;;;;;48.65;25.42;;;0.10;99.90;;;;;;5033417;28;20045;-64
2023/01/25 06:47:57;;;;;;;50.47;27.40;;;0.10;99.90;;;;;;5016187;28;20046;-64
2023/01/25 06:50:23;;;;;;;49.60;28.35;;;0.10;99.90;;;;;;5016950;28;20045;-64
2023/01/25 06:52:53;;;;;;;47.38;26.38;;;0.10;99.90;;;;;;5034353;28;20036;-64
2023/01/25 06:55:19;;;;;;;46.45;26.35;;;0.10;99.90;;;;;;5016370;28;20042;-64
2023/01/25 06:57:45;;;;;;;47.35;26.50;;;0.10;99.90;;;;;;5016243;28;20120;-64
2023/01/25 07:00:11;;;;;;;49.60;26.65;;;0.10;99.90;;;;;;5034603;28;20180;-64
2023/01/25 07:02:37;;;;;;;46.83;24.90;;;0.10;99.90;;;;;;5032011;28;20044;-64
2023/01/25 07:05:03;;;;;;;44.63;24.17;;;0.10;99.90;;;;;;5033232;28;20045;-64
2023/01/25 07:07:29;;;;;;;40.90;23.67;;;0.10;99.90;;;;;;5033082;28;20047;-64
2023/01/25 07:09:54;;;;;;;53.40;29.52;;;0.10;99.90;;;;;;5032422;28;20406;-64
2023/01/25 07:12:21;;;;;;;42.10;24.23;;;0.10;99.90;;;;;;5033210;28;20029;-64
2023/01/25 07:14:48;;;;;;;46.15;25.10;;;0.10;99.90;;;;;;5031992;28;20136;-64
2023/01/25 07:17:14;;;;;;;43.60;25.42;;;0.10;99.90;;;;;;5033020;28;20038;-64
2023/01/25 07:19:40;;;;;;;43.63;26.58;;;0.20;99.90;;;;;;5016069;28;20037;-64
2023/01/25 07:22:05;;;;;;;46.25;25.73;;;0.20;99.90;;;;;;5033060;28;20517;-64
2023/01/25 07:24:31;;;;;;;50.85;27.42;;;0.20;99.90;;;;;;5032634;28;20041;-64
2023/01/25 07:26:57;;;;;;;48.20;25.77;;;0.20;99.90;;;;;;5046525;28;20043;-64
2023/01/25 07:29:23;;;;;;;43.95;26.35;;;0.30;99.90;;;;;;5032192;28;20050;-64
2023/01/25 07:31:49;;;;;;;43.28;26.00;;;0.30;99.90;;;;;;5056801;28;20033;-64
2023/01/25 07:34:15;;;;;;;46.13;25.98;;;0.30;99.90;;;;;;5024609;28;20048;-64
2023/01/25 07:36:42;;;;;;;47.33;24.90;;;0.30;99.90;;;;;;5034722;28;20064;-64
2023/01/25 07:39:11;;;;;;;46.55;25.23;;;0.30;99.90;;;;;;5031556;28;20052;-64
2023/01/25 07:41:37;;;;;;;45.00;25.80;;;0.40;99.90;;;;;;5032219;28;20092;-64
2023/01/25 07:44:03;;;;;;;46.67;25.77;;;0.40;99.90;;;;;;5049351;28;20052;-64
2023/01/25 07:46:29;;;;;;;45.17;24.98;;;0.40;99.90;;;;;;5049283;28;20041;-65
2023/01/25 07:48:57;;;;;;;47.40;25.13;;;0.40;99.90;;;;;;5051161;28;20486;-64
2023/01/25 07:51:25;;;;;;;45.60;25.90;;;0.40;99.90;;;;;;5050612;28;20389;-65
2023/01/25 07:54:02;;;;;;;40.22;22.50;;;0.40;99.90;;;;;;5046855;28;20516;-65
2023/01/25 07:56:39;;;;;;;42.78;23.42;;;0.50;99.90;;;;;;5014523;28;20060;-65
2023/01/25 07:59:07;;;;;;;44.55;24.98;;;0.50;99.90;;;;;;5029312;28;20206;-64
2023/01/25 08:01:33;;;;;;;44.38;24.83;;;0.50;99.90;;;;;;5029510;28;20049;-64
2023/01/25 08:04:00;;;;;;;42.45;22.65;;;0.50;99.90;;;;;;5035721;28;20413;-64
2023/01/25 08:06:34;;;;;;;43.25;23.85;;;0.50;99.90;;;;;;5029592;28;20057;-65
2023/01/25 08:09:02;;;;;;;42.65;23.90;;;0.50;99.90;;;;;;5048259;28;20080;-64
2023/01/25 08:11:29;;;;;;;46.20;25.95;;;0.50;99.90;;;;;;5023715;28;20036;-64
2023/01/25 08:13:56;;;;;;;45.42;24.10;;;0.50;99.90;;;;;;5039693;28;20049;-65
2023/01/25 08:16:26;;;;;;;48.67;25.55;;;0.50;99.90;;;;;;5033847;28;20037;-66
2023/01/25 08:18:57;;;;;;;42.65;23.05;;;0.50;99.90;;;;;;5033578;28;20099;-66
2023/01/25 08:21:24;;;;;;;45.42;24.65;;;0.50;99.90;;;;;;5049384;28;20413;-65
2023/01/25 08:23:50;;;;;;;45.53;22.73;;;0.60;99.90;;;;;;5046843;28;20036;-65
2023/01/25 08:26:16;;;;;;;47.10;23.15;;;0.50;99.90;;;;;;5045378;28;20098;-65
2023/01/25 08:28:43;;;;;;;43.83;23.63;;;0.60;99.90;;;;;;5043404;28;20091;-65
2023/01/25 08:31:14;;;;;;;42.63;22.50;;;0.60;99.90;;;;;;5048179;28;20048;-65
2023/01/25 08:33:41;;;;;;;46.55;23.48;;;0.50;99.90;;;;;;5030056;28;20132;-65
2023/01/25 08:36:08;;;;;;;46.45;24.08;;;0.50;99.90;;;;;;5017954;28;20049;-65
2023/01/25 08:38:35;;;;;;;44.72;23.98;;;0.60;99.90;;;;;;5037744;28;20053;-65
2023/01/25 08:41:15;;;;;;;40.88;21.65;;;0.60;99.90;;;;;;5047724;28;20041;-65
2023/01/25 08:43:42;;;;;;;47.53;25.08;;;0.60;99.90;;;;;;5030841;28;20072;-65
2023/01/25 08:46:08;;;;;;;47.75;25.10;;;0.60;99.90;;;;;;5045150;28;20100;-65
2023/01/25 08:48:34;;;;;;;54.40;28.20;;;0.60;99.90;;;;;;5017460;28;20397;-65
2023/01/25 08:51:00;;;;;;;54.90;27.33;;;0.60;99.90;;;;;;5039249;28;20038;-65
2023/01/25 08:53:27;;;;;;;53.70;29.30;;;0.60;99.90;;;;;;5029726;28;20732;-65
2023/01/25 08:55:53;;;;;;;51.38;28.33;;;0.60;99.90;;;;;;5038582;28;20048;-65
2023/01/25 08:58:21;;;;;;;48.28;25.63;;;0.60;99.90;;;;;;5047685;28;20044;-65
2023/01/25 09:00:48;;;;;;;48.40;25.33;;;0.70;99.90;;;;;;5047227;28;21083;-65
2023/01/25 09:03:14;;;;;;;49.50;26.15;;;0.70;99.90;;;;;;5028779;28;20041;-65
2023/01/25 09:05:40;;;;;;;47.78;25.17;;;0.70;99.90;;;;;;5013107;28;20052;-65
2023/01/25 09:08:07;;;;;;;54.10;28.70;;;0.70;99.90;;;;;;5048625;28;20041;-65
2023/01/25 09:10:33;;;;;;;51.05;25.33;;;0.70;99.90;;;;;;5047516;28;20493;-65
2023/01/25 09:12:59;;;;;;;47.38;23.25;;;0.70;99.90;;;;;;5041448;28;20447;-65
2023/01/25 09:15:25;;;;;;;46.53;24.40;;;0.80;99.90;;;;;;5027366;28;20121;-65
2023/01/25 09:17:55;;;;;;;52.25;26.67;;;0.80;99.90;;;;;;5013008;28;20041;-65
2023/01/25 09:20:22;;;;;;;53.13;26.52;;;0.80;99.90;;;;;;5016540;28;20052;-65
2023/01/25 09:22:47;;;;;;;54.60;27.48;;;0.80;99.90;;;;;;5033394;28;20040;-65
2023/01/25 09:25:14;;;;;;;51.65;25.83;;;0.80;99.90;;;;;;5047197;28;20087;-65
2023/01/25 09:27:40;;;;;;;53.88;26.63;;;0.80;99.90;;;;;;5031650;28;20048;-65
2023/01/25 09:30:08;;;;;;;45.25;23.08;;;0.90;99.90;;;;;;5061703;28;20128;-65
2023/01/25 09:32:33;;;;;;;50.38;24.58;;;0.90;99.90;;;;;;5029053;28;20036;-65
2023/01/25 09:34:59;;;;;;;47.45;24.90;;;0.90;99.90;;;;;;5035912;28;20116;-65
2023/01/25 09:37:25;;;;;;;50.60;26.55;;;0.90;99.90;;;;;;5056412;28;20589;-65
2023/01/25 09:39:51;;;;;;;50.60;25.33;;;0.90;99.90;;;;;;5049338;28;20735;-65
2023/01/25 09:42:35;;;;;;;51.25;26.77;;;0.90;99.90;;;;;;5040409;28;20048;-66
2023/01/25 09:45:11;;;;;;;51.05;26.20;;;1.00;99.90;;;;;;5054298;28;20055;-65
2023/01/25 09:47:41;;;;;;;50.05;26.92;;;1.00;99.90;;;;;;5044885;28;20049;-63
2023/01/25 09:50:10;;;;;;;55.58;26.77;;;1.00;99.90;;;;;;5033367;28;20509;-62
2023/01/25 09:53:10;;;;;;;51.28;26.15;;;1.00;99.90;;;;;;5032548;28;20042;-63
2023/01/25 09:55:36;;;;;;;61.50;29.52;;;1.00;99.90;;;;;;5042404;28;20045;-63
2023/01/25 09:58:03;;;;;;;53.92;28.63;;;1.00;99.90;;;;;;5031993;28;20497;-63
2023/01/25 10:00:36;;;;;;;50.95;28.27;;;1.00;99.90;;;;;;5035610;28;20045;-63
2023/01/25 10:03:12;;;;;;;54.15;27.98;;;1.00;99.90;;;;;;5023865;28;20072;-63
2023/01/25 10:05:47;;;;;;;58.60;28.35;;;1.00;99.90;;;;;;5040001;28;20056;-63
2023/01/25 10:08:16;;;;;;;;;;;1.10;99.90;;;;;;5045194;28;20045;-62
2023/01/25 10:10:43;;;;;;;53.42;28.20;;;1.10;99.90;;;;;;5043101;28;19925;-63
2023/01/25 10:13:19;;;;;;;58.70;27.42;;;1.10;99.90;;;;;;5051434;28;20091;-63
2023/01/25 10:15:58;;;;;;;55.85;27.20;;;1.10;99.90;;;;;;5041162;28;20057;-63
2023/01/25 10:18:57;;;;;;;53.70;24.98;;;1.10;99.90;;;;;;5022894;28;20037;-63
2023/01/25 10:21:31;;;;;;;55.03;27.70;;;1.10;99.90;;;;;;5011917;28;20152;-63
2023/01/25 10:23:59;;;;;;;56.70;26.90;;;1.10;99.90;;;;;;5049265;28;20040;-63
2023/01/25 10:26:34;;;;;;;59.95;24.95;;;1.10;99.90;;;;;;5047933;28;20516;-63
2023/01/25 10:29:17;;;;;;;58.42;25.55;;;1.10;99.90;;;;;;5031169;28;20045;-63
2023/01/25 10:32:17;;;;;;;52.80;26.05;;;1.10;99.90;;;;;;5046322;28;20539;-63
2023/01/25 10:34:49;;;;;;;62.63;28.17;;;1.10;99.90;;;;;;5039978;28;20053;-63
2023/01/25 10:37:21;;;;;;;57.08;25.80;;;1.10;99.90;;;;;;5069399;28;20599;-64
2023/01/25 10:40:05;;;;;;;58.53;26.25;;;1.10;99.90;;;;;;5042839;28;20052;-63
2023/01/25 10:42:46;;;;;;;57.00;25.92;;;1.20;99.90;;;;;;5035405;28;20037;-64
2023/01/25 10:45:13;;;;;;;54.53;25.67;;;1.20;99.90;;;;;;5053561;28;20068;-64
2023/01/25 10:47:42;;;;;;;57.97;26.13;;;1.20;99.90;;;;;;5068347;28;20052;-63
2023/01/25 10:50:09;;;;;;;59.67;28.20;;;1.20;99.90;;;;;;5042252;28;20041;-63
2023/01/25 10:52:36;;;;;;;52.88;26.15;;;1.20;99.90;;;;;;5044567;28;20049;-63
2023/01/25 10:55:15;;;;;;;57.40;25.33;;;1.20;99.90;;;;;;5038050;28;20048;-63
2023/01/25 10:58:02;;;;;;;60.92;27.17;;;1.20;99.90;;;;;;5032254;28;20097;-63
2023/01/25 11:00:35;;;;;;;57.97;27.08;;;1.30;99.90;;;;;;5049396;28;20053;-63
2023/01/25 11:03:01;;;;;;;56.03;28.35;;;1.30;99.90;;;;;;5050328;28;20048;-63
2023/01/25 11:05:32;;;;;;;54.60;26.15;;;1.30;99.90;;;;;;5031180;28;20041;-63
2023/01/25 11:08:13;;;;;;;57.95;26.33;;;1.30;99.90;;;;;;5022638;28;20438;-63
2023/01/25 11:10:42;;;;;;;56.03;26.00;;;1.30;99.90;;;;;;5030765;28;20552;-63
2023/01/25 11:13:14;;;;;;;55.58;27.10;;;1.40;99.90;;;;;;5045979;28;20552;-63
2023/01/25 11:15:58;;;;;;;59.88;28.23;;;1.40;99.90;;;;;;5034358;28;20049;-63
2023/01/25 11:18:33;;;;;;;52.50;24.40;;;1.40;99.90;;;;;;5032152;28;20371;-63
2023/01/25 11:21:09;;;;;;;;;;;1.40;99.90;;;;;;5067860;28;20043;-63
2023/01/25 11:23:35;;;;;;;57.53;26.10;;;1.40;99.90;;;;;;5013417;28;19921;-63
2023/01/25 11:26:15;;;;;;;61.42;29.50;;;1.40;99.90;;;;;;5014274;28;20352;-63
2023/01/25 11:28:41;;;;;;;63.15;26.45;;;1.50;99.90;;;;;;5031049;28;20119;-63
2023/01/25 11:31:12;;;;;;;61.58;28.42;;;1.50;99.90;;;;;;5045610;28;20051;-63
2023/01/25 11:33:39;;;;;;;64.88;28.70;;;1.50;99.90;;;;;;5039326;28;20083;-63
2023/01/25 11:36:30;;;;;;;68.95;28.75;;;1.50;99.90;;;;;;5012788;28;20077;-63
2023/01/25 11:39:14;;;;;;;57.60;28.05;;;1.50;99.90;;;;;;5041964;28;20045;-63
2023/01/25 11:42:01;;;;;;;69.80;29.60;;;1.50;99.90;;;;;;5029826;28;20045;-63
2023/01/25 11:44:31;;;;;;;63.03;28.20;;;1.50;99.90;;;;;;5029945;28;20487;-63
2023/01/25 11:47:22;;;;;;;65.60;28.48;;;1.60;99.90;;;;;;5029854;28;20103;-63
2023/01/25 11:50:10;;;;;;;61.00;27.90;;;1.60;99.90;;;;;;5037210;28;20053;-63
2023/01/25 11:52:57;;;;;;;62.17;28.35;;;1.60;99.90;;;;;;5053120;28;20485;-63
2023/01/25 11:55:54;;;;;;;59.90;27.60;;;1.50;99.90;;;;;;5031805;28;20090;-63
2023/01/25 11:58:35;;;;;;;63.63;27.95;;;1.60;99.90;;;;;;5024730;28;20050;-64
2023/01/25 12:01:07;;;;;;;60.00;29.33;;;1.60;99.90;;;;;;5012233;28;20056;-63
2023/01/25 12:04:16;;;;;;;56.85;27.95;;;1.60;99.90;;;;;;5054688;28;20054;-63
2023/01/25 12:06:57;;;;;;;59.53;25.92;;;1.60;99.90;;;;;;4989921;28;20053;-62
2023/01/25 12:09:29;;;;;;;66.03;30.92;;;1.70;99.90;;;;;;5037675;28;20049;-63
2023/01/25 12:12:19;;;;;;;61.60;29.40;;;1.70;99.90;;;;;;5034687;28;20379;-63
2023/01/25 12:14:54;;;;;;;61.30;27.80;;;1.70;99.90;;;;;;5049183;28;21064;-63
2023/01/25 12:17:56;;;;;;;72.93;31.40;;;1.70;99.90;;;;;;5028168;28;20044;-63
2023/01/25 12:20:46;;;;;;;69.30;33.13;;;1.80;99.90;;;;;;5029773;28;20298;-63
2023/01/25 12:23:18;;;;;;;65.30;31.08;;;1.80;99.90;;;;;;5044564;28;20060;-63
2023/01/25 12:26:11;;;;;;;71.95;31.27;;;1.80;99.90;;;;;;5030677;28;20087;-63
2023/01/25 12:29:09;;;;;;;66.68;31.95;;;1.80;99.90;;;;;;5051581;28;20377;-63
2023/01/25 12:31:53;;;;;;;71.82;30.25;;;1.80;99.90;;;;;;5034924;28;20051;-63
2023/01/25 12:34:32;;;;;;;66.47;29.10;;;1.80;99.90;;;;;;5032672;28;20059;-63
2023/01/25 12:37:04;;;;;;;65.40;28.63;;;1.80;99.90;;;;;;5031256;28;20048;-63
2023/01/25 12:39:39;;;;;;;74.75;31.83;;;1.70;99.90;;;;;;5031498;28;20087;-63
2023/01/25 12:42:16;;;;;;;63.63;28.50;;;1.80;99.90;;;;;;5032834;28;20129;-63
2023/01/25 12:45:02;;;;;;;69.03;29.85;;;1.80;99.90;;;;;;5014269;28;20037;-63
2023/01/25 12:47:50;;;;;;;73.32;30.58;;;1.80;99.90;;;;;;5031218;28;20040;-63
2023/01/25 12:50:37;;;;;;;69.97;30.45;;;1.90;99.90;;;;;;5032666;28;20199;-63
2023/01/25 12:53:39;;;;;;;60.38;29.35;;;1.90;99.90;;;;;;5030660;28;20038;-63